Time;durP1;ratioP1;P1;durP2;ratioP2;P2;SDS_P1;SDS_P2;PMS_P1;PMS_P2;Temp;Humidity;BMP_temperature;BMP_pressure;BME280_temperature;BME280_humidity;BME280_pressure;Samples;Min_cycle;Max_cycle;Signal;HPM_P1;HPM_P2
2021/12/04 00:00:46;;;;;;;25.10;13.10;;;-0.10;91.40;;;;;;5094893;27;20085;-79
2021/12/04 00:03:13;;;;;;;27.15;13.77;;;-0.10;91.40;;;;;;5115050;28;20050;-80
2021/12/04 00:05:45;;;;;;;28.55;13.55;;;-0.10;91.30;;;;;;5150293;27;20057;-81
2021/12/04 00:08:11;;;;;;;26.35;14.18;;;-0.10;91.30;;;;;;5118280;27;20035;-79
2021/12/04 00:10:38;;;;;;;24.42;13.18;;;-0.10;91.30;;;;;;5126234;28;20061;-79
2021/12/04 00:13:04;;;;;;;28.77;14.77;;;-0.10;91.30;;;;;;5099623;27;20039;-80
2021/12/04 00:15:30;;;;;;;25.75;13.45;;;-0.10;91.40;;;;;;5134241;27;20117;-84
2021/12/04 00:17:57;;;;;;;25.15;13.77;;;-0.10;91.40;;;;;;5133940;27;20055;-79
2021/12/04 00:20:27;;;;;;;34.50;14.70;;;-0.10;91.30;;;;;;5133682;27;20034;-78
2021/12/04 00:22:56;;;;;;;28.25;13.68;;;-0.10;91.40;;;;;;5100539;27;20087;-77
2021/12/04 00:25:22;;;;;;;28.65;14.18;;;-0.10;91.40;;;;;;5117191;27;20039;-78
2021/12/04 00:27:49;;;;;;;31.40;14.18;;;-0.10;91.40;;;;;;5100722;27;20074;-79
2021/12/04 00:30:15;;;;;;;27.30;13.70;;;-0.10;91.50;;;;;;5139145;27;20051;-79
2021/12/04 00:32:44;;;;;;;28.55;13.88;;;-0.20;91.60;;;;;;5104588;27;20130;-78
2021/12/04 00:35:32;;;;;;;;;;;-0.20;91.60;;;;;;5145526;27;20288;-79
2021/12/04 00:49:05;;;;;;;31.15;14.30;;;-0.20;91.70;;;;;;5102067;27;20039;-79
2021/12/04 00:51:43;;;;;;;26.02;13.75;;;-0.10;91.70;;;;;;5102471;27;20027;-80
2021/12/04 00:54:10;;;;;;;26.27;14.52;;;-0.10;91.60;;;;;;5151318;27;20392;-80
2021/12/04 00:56:40;;;;;;;23.25;12.82;;;-0.10;91.60;;;;;;5162032;27;20034;-79
2021/12/04 00:59:06;;;;;;;27.25;13.88;;;-0.10;91.60;;;;;;5131102;27;20035;-79
2021/12/04 01:01:33;;;;;;;25.65;13.93;;;-0.10;91.60;;;;;;5115925;27;20423;-80
2021/12/04 01:03:59;;;;;;;27.63;14.55;;;0.00;91.50;;;;;;5120982;27;20051;-80
2021/12/04 01:06:25;;;;;;;21.95;13.43;;;0.00;91.60;;;;;;5120957;27;20179;-81
2021/12/04 01:08:52;;;;;;;25.92;14.05;;;0.00;91.40;;;;;;5126556;27;20043;-80
2021/12/04 01:11:18;;;;;;;25.02;13.77;;;0.00;91.40;;;;;;5114046;27;20349;-80
2021/12/04 01:13:44;;;;;;;24.38;13.55;;;0.00;91.30;;;;;;5121096;27;20047;-81
2021/12/04 01:16:11;;;;;;;26.40;13.32;;;0.00;91.40;;;;;;5126839;27;20030;-80
2021/12/04 01:18:38;;;;;;;23.80;13.18;;;0.00;91.40;;;;;;5135576;27;20127;-80
2021/12/04 01:21:04;;;;;;;27.42;13.60;;;0.00;91.30;;;;;;5127497;27;20776;-80
2021/12/04 01:23:30;;;;;;;28.35;14.07;;;0.00;91.40;;;;;;5122371;27;20039;-80
2021/12/04 01:25:57;;;;;;;26.10;14.30;;;-0.10;91.40;;;;;;5131643;27;20031;-81
2021/12/04 01:28:23;;;;;;;24.95;14.15;;;0.00;91.40;;;;;;5147778;27;20034;-80
2021/12/04 01:30:49;;;;;;;25.15;13.50;;;0.00;91.40;;;;;;5118053;27;20042;-80
2021/12/04 01:33:15;;;;;;;26.88;12.93;;;0.00;91.50;;;;;;5126776;27;20190;-79
2021/12/04 01:35:41;;;;;;;31.38;15.23;;;0.00;91.40;;;;;;5120879;27;20047;-80
2021/12/04 01:38:07;;;;;;;29.02;14.20;;;0.00;91.40;;;;;;5103401;27;20039;-80
2021/12/04 01:40:33;;;;;;;28.65;15.40;;;0.00;91.40;;;;;;5121098;27;20114;-80
2021/12/04 01:42:59;;;;;;;27.48;15.30;;;-0.10;91.50;;;;;;5128569;27;20075;-80
2021/12/04 01:45:26;;;;;;;25.48;14.50;;;-0.10;91.60;;;;;;5096738;27;20046;-81
2021/12/04 01:47:58;;;;;;;25.08;15.15;;;-0.10;91.70;;;;;;5096346;27;20140;-80
2021/12/04 01:50:26;;;;;;;25.23;14.77;;;-0.10;91.70;;;;;;5130307;27;20459;-80
2021/12/04 01:52:55;;;;;;;33.45;16.13;;;-0.10;91.80;;;;;;5110604;27;20062;-80
2021/12/04 01:55:25;;;;;;;;;;;-0.10;91.90;;;;;;5084140;27;20046;-80
2021/12/04 01:57:51;;;;;;;30.02;14.32;;;-0.10;92.10;;;;;;5124876;27;19919;-80
2021/12/04 02:00:18;;;;;;;30.92;15.98;;;-0.10;91.90;;;;;;5130456;27;20042;-80
2021/12/04 02:02:44;;;;;;;31.92;16.35;;;-0.10;92.00;;;;;;5133144;27;20043;-78
2021/12/04 02:05:10;;;;;;;30.73;15.13;;;-0.10;92.10;;;;;;5090782;27;20037;-78
2021/12/04 02:07:37;;;;;;;28.95;15.38;;;-0.10;92.20;;;;;;5104497;27;20104;-79
2021/12/04 02:10:05;;;;;;;27.98;15.77;;;-0.10;92.30;;;;;;5143155;27;20027;-78
2021/12/04 02:12:32;;;;;;;28.08;14.98;;;-0.10;92.40;;;;;;5123653;27;20066;-79
2021/12/04 02:14:58;;;;;;;32.95;15.93;;;-0.10;92.40;;;;;;5112253;27;20035;-79
2021/12/04 02:17:24;;;;;;;29.20;15.68;;;-0.10;92.40;;;;;;5103894;27;20031;-80
2021/12/04 02:19:51;;;;;;;29.85;15.52;;;-0.10;92.50;;;;;;5111359;27;20064;-80
2021/12/04 02:22:17;;;;;;;34.90;17.48;;;-0.10;92.60;;;;;;5151435;27;20054;-80
2021/12/04 02:24:43;;;;;;;30.05;16.05;;;-0.10;92.60;;;;;;5111155;27;20031;-79
2021/12/04 02:27:12;;;;;;;29.13;15.63;;;-0.10;92.70;;;;;;5098540;27;20050;-80
2021/12/04 02:29:46;;;;;;;29.95;16.83;;;-0.10;92.70;;;;;;5101790;27;20076;-80
2021/12/04 02:32:12;;;;;;;32.25;17.25;;;0.00;92.80;;;;;;5112709;27;20031;-80
2021/12/04 02:34:39;;;;;;;41.53;19.30;;;0.00;92.80;;;;;;5131927;27;20054;-81
2021/12/04 02:37:07;;;;;;;43.92;21.45;;;0.00;92.80;;;;;;5099106;27;20034;-81
2021/12/04 02:39:36;;;;;;;42.72;21.00;;;0.00;92.80;;;;;;5100759;27;20524;-83
2021/12/04 02:42:06;;;;;;;35.85;18.10;;;0.00;92.70;;;;;;5110654;27;20351;-79
2021/12/04 02:44:38;;;;;;;38.47;19.38;;;0.10;92.80;;;;;;5143720;27;20051;-77
2021/12/04 02:47:06;;;;;;;31.20;18.08;;;0.10;93.00;;;;;;5132630;27;20043;-78
2021/12/04 02:49:32;;;;;;;34.92;17.60;;;0.10;93.40;;;;;;5098646;27;20391;-78
2021/12/04 02:52:06;;;;;;;30.08;17.42;;;0.10;93.90;;;;;;5130128;27;20038;-78
2021/12/04 02:54:34;;;;;;;31.98;18.45;;;0.10;94.20;;;;;;5132298;27;20399;-78
2021/12/04 02:57:01;;;;;;;30.00;17.02;;;0.10;95.40;;;;;;5114179;27;20072;-79
2021/12/04 02:59:28;;;;;;;33.08;18.98;;;0.10;96.30;;;;;;5129126;27;20035;-79
2021/12/04 03:01:55;;;;;;;31.00;17.92;;;0.00;97.20;;;;;;5132382;27;20058;-79
2021/12/04 03:04:24;;;;;;;35.00;19.27;;;0.00;98.20;;;;;;5093793;27;20034;-79
2021/12/04 03:06:51;;;;;;;37.80;19.95;;;0.00;98.90;;;;;;5128055;27;20066;-79
2021/12/04 03:09:18;;;;;;;35.80;20.20;;;-0.10;99.60;;;;;;5125397;27;20061;-79
2021/12/04 03:11:44;;;;;;;40.90;21.50;;;-0.20;99.90;;;;;;5129391;27;20026;-79
2021/12/04 03:14:11;;;;;;;38.42;22.45;;;-0.20;99.90;;;;;;5112035;27;20038;-79
2021/12/04 03:16:40;;;;;;;41.42;23.23;;;-0.30;99.90;;;;;;5128763;27;20043;-81
2021/12/04 03:19:06;;;;;;;51.38;23.98;;;-0.30;99.90;;;;;;5149979;27;20039;-81
2021/12/04 03:21:34;;;;;;;38.25;23.38;;;-0.30;99.90;;;;;;5112329;27;20048;-80
2021/12/04 03:24:06;;;;;;;44.80;24.25;;;-0.40;99.90;;;;;;5108715;27;20039;-79
2021/12/04 03:26:34;;;;;;;40.90;24.35;;;-0.40;99.90;;;;;;5132081;27;20483;-78
2021/12/04 03:29:06;;;;;;;44.45;25.80;;;-0.40;99.90;;;;;;5120466;27;20034;-79
2021/12/04 03:42:21;;;;;;;42.95;24.60;;;-0.50;99.90;;;;;;5126112;27;20047;-78
2021/12/04 03:44:48;;;;;;;40.63;23.88;;;-0.50;99.90;;;;;;5109298;27;20035;-79
2021/12/04 03:47:14;;;;;;;39.97;23.75;;;-0.50;99.90;;;;;;5146715;27;20039;-78
2021/12/04 03:49:41;;;;;;;44.50;24.95;;;-0.50;99.90;;;;;;5112734;27;20058;-78
2021/12/04 03:52:08;;;;;;;41.42;24.50;;;-0.50;99.90;;;;;;5147432;27;20463;-80
2021/12/04 03:54:35;;;;;;;44.22;24.05;;;-0.50;99.90;;;;;;5111009;27;20043;-78
2021/12/04 03:57:04;;;;;;;44.40;24.25;;;-0.50;99.90;;;;;;5112654;27;20573;-78
2021/12/04 03:59:37;;;;;;;37.70;22.83;;;-0.40;99.90;;;;;;5131024;27;20059;-78
2021/12/04 04:02:06;;;;;;;42.10;23.73;;;-0.50;99.90;;;;;;5112076;27;20055;-78
2021/12/04 04:04:32;;;;;;;42.33;24.00;;;-0.40;99.90;;;;;;5120978;27;20089;-79
2021/12/04 04:06:59;;;;;;;41.60;24.23;;;-0.40;99.90;;;;;;5134932;27;20142;-79
2021/12/04 04:09:29;;;;;;;43.88;23.85;;;-0.40;99.90;;;;;;5140343;27;20144;-79
2021/12/04 04:11:56;;;;;;;44.65;24.17;;;-0.40;99.90;;;;;;5133494;27;20478;-78
2021/12/04 04:14:24;;;;;;;45.67;24.98;;;-0.40;99.90;;;;;;5155540;27;20054;-79
2021/12/04 04:16:53;;;;;;;48.70;26.73;;;-0.40;99.90;;;;;;5127819;27;20050;-79
2021/12/04 04:19:20;;;;;;;44.88;25.38;;;-0.40;99.90;;;;;;5113989;27;20042;-80
2021/12/04 04:21:46;;;;;;;44.83;25.27;;;-0.40;99.90;;;;;;5116450;27;20905;-79
2021/12/04 04:24:17;;;;;;;41.58;24.55;;;-0.40;99.90;;;;;;5129091;27;20387;-79
2021/12/04 04:26:44;;;;;;;41.15;24.80;;;-0.40;99.90;;;;;;5132614;27;20035;-80
2021/12/04 04:29:12;;;;;;;46.88;24.83;;;-0.40;99.90;;;;;;5108597;27;20027;-80
2021/12/04 04:31:49;;;;;;;48.75;27.08;;;-0.40;99.90;;;;;;5111620;27;20046;-79
2021/12/04 04:34:23;;;;;;;40.47;22.38;;;-0.40;99.90;;;;;;5110622;27;20046;-81
2021/12/04 04:59:29;;;;;;;31.80;19.33;;;-0.20;99.90;;;;;;5096512;28;20059;-79
2021/12/04 05:20:40;;;;;;;36.78;20.15;;;-0.10;99.90;;;;;;5089682;28;20071;-81
2021/12/04 05:23:10;;;;;;;33.88;19.13;;;0.00;99.90;;;;;;5070043;28;20044;-81
2021/12/04 05:25:45;;;;;;;33.88;20.27;;;0.00;99.90;;;;;;5063646;28;20052;-81
2021/12/04 05:28:17;;;;;;;32.80;18.55;;;0.00;99.90;;;;;;5072133;28;20048;-81
2021/12/04 05:30:44;;;;;;;34.33;18.63;;;0.00;99.90;;;;;;5088911;28;20040;-81
2021/12/04 05:33:10;;;;;;;36.03;19.77;;;0.00;99.90;;;;;;5072527;28;20138;-82
2021/12/04 05:35:37;;;;;;;44.05;23.00;;;0.00;99.90;;;;;;5073189;28;20544;-81
2021/12/04 05:38:03;;;;;;;54.05;27.55;;;0.00;99.90;;;;;;5088482;28;20036;-80
2021/12/04 05:40:29;;;;;;;45.65;22.27;;;0.10;99.90;;;;;;5074849;28;20047;-80
2021/12/04 05:43:01;;;;;;;46.53;22.30;;;0.10;99.90;;;;;;5089639;28;20068;-80
2021/12/04 05:45:30;;;;;;;39.42;22.10;;;0.10;99.90;;;;;;5056228;28;20094;-81
2021/12/04 05:48:05;;;;;;;44.10;23.17;;;0.10;99.90;;;;;;5071543;28;20420;-81
2021/12/04 05:53:23;;;;;;;42.10;21.92;;;0.10;99.90;;;;;;5090237;28;20063;-80
2021/12/04 05:55:58;;;;;;;;;;;0.10;99.90;;;;;;5125777;27;20132;-80
2021/12/04 05:58:30;;;;;;;39.97;19.98;;;0.10;99.90;;;;;;5113536;27;20673;-81
2021/12/04 06:01:01;;;;;;;37.92;19.23;;;0.10;99.90;;;;;;5139661;27;20165;-81
2021/12/04 06:03:27;;;;;;;35.58;20.23;;;0.10;99.90;;;;;;5139496;27;20088;-81
2021/12/04 06:05:54;;;;;;;39.88;22.23;;;0.10;99.90;;;;;;5146614;27;20068;-83
2021/12/04 06:08:20;;;;;;;49.70;25.23;;;0.10;99.90;;;;;;5117561;27;20472;-85
2021/12/04 06:10:48;;;;;;;41.20;20.33;;;0.20;99.90;;;;;;5123240;27;20054;-81
2021/12/04 06:13:15;;;;;;;35.40;20.13;;;0.20;99.90;;;;;;5133824;27;20051;-82
2021/12/04 06:15:41;;;;;;;36.72;18.90;;;0.20;99.90;;;;;;5113547;27;20039;-81
2021/12/04 06:18:08;;;;;;;33.53;20.58;;;0.20;99.90;;;;;;5111165;27;20039;-81
2021/12/04 06:23:20;;;;;;;37.15;20.13;;;0.20;99.90;;;;;;5145623;27;20038;-81
2021/12/04 06:25:47;;;;;;;37.30;20.70;;;0.20;99.90;;;;;;5128838;27;20064;-82
2021/12/04 06:28:13;;;;;;;39.25;22.52;;;0.20;99.90;;;;;;5114261;27;20038;-83
2021/12/04 06:30:41;;;;;;;36.95;21.83;;;0.20;99.90;;;;;;5115770;27;20415;-84
2021/12/04 06:33:09;;;;;;;36.70;21.48;;;0.20;99.90;;;;;;5142167;27;20381;-82
2021/12/04 06:35:39;;;;;;;42.58;22.10;;;0.30;99.90;;;;;;5115585;27;20109;-83
2021/12/04 06:38:06;;;;;;;40.70;21.20;;;0.20;99.90;;;;;;5127138;27;20471;-81
2021/12/04 06:40:32;;;;;;;36.90;20.35;;;0.20;99.90;;;;;;5124350;27;20054;-83
2021/12/04 06:42:59;;;;;;;40.15;22.30;;;0.30;99.90;;;;;;5128924;27;20123;-82
2021/12/04 06:45:29;;;;;;;38.80;22.75;;;0.30;99.90;;;;;;5117296;27;20043;-82
2021/12/04 06:51:41;;;;;;;41.60;21.13;;;0.30;99.90;;;;;;5114360;27;20046;-82
2021/12/04 06:53:49;;;;;;;36.10;20.45;;;0.30;99.90;;;;;;5111644;27;20039;-82
2021/12/04 06:56:16;;;;;;;61.25;31.77;;;0.30;99.90;;;;;;5116445;27;20035;-82
2021/12/04 06:58:42;;;;;;;50.05;23.58;;;0.40;99.90;;;;;;5095716;27;20046;-83
2021/12/04 07:01:10;;;;;;;36.13;20.77;;;0.40;99.90;;;;;;5116938;27;20081;-80
2021/12/04 07:03:38;;;;;;;38.05;20.95;;;0.40;99.90;;;;;;5117480;27;20047;-82
2021/12/04 07:06:04;;;;;;;40.05;22.15;;;0.40;99.90;;;;;;5087295;27;20027;-81
2021/12/04 07:08:31;;;;;;;35.83;22.63;;;0.40;99.90;;;;;;5100946;27;20035;-82
2021/12/04 07:10:57;;;;;;;38.20;22.65;;;0.40;99.90;;;;;;5118054;27;20042;-81
2021/12/04 07:13:23;;;;;;;35.20;21.60;;;0.40;99.90;;;;;;5123071;27;20046;-83
2021/12/04 07:15:58;;;;;;;38.53;23.00;;;0.40;99.90;;;;;;5107118;28;20039;-80
2021/12/04 07:18:24;;;;;;;39.25;24.48;;;0.50;99.90;;;;;;5141834;27;20034;-83
2021/12/04 07:20:50;;;;;;;42.65;24.75;;;0.40;99.90;;;;;;5103651;27;20043;-82
2021/12/04 07:23:16;;;;;;;37.67;24.15;;;0.40;99.90;;;;;;5114896;28;20040;-84
2021/12/04 07:25:43;;;;;;;43.83;24.80;;;0.40;99.90;;;;;;5080727;28;20111;-84
2021/12/04 07:28:09;;;;;;;41.67;25.17;;;0.40;99.90;;;;;;5102319;27;20448;-84
2021/12/04 07:30:35;;;;;;;39.63;24.95;;;0.40;99.90;;;;;;5121315;27;20027;-84
2021/12/04 07:33:01;;;;;;;40.38;24.48;;;0.40;99.90;;;;;;5103128;27;20078;-85
2021/12/04 07:35:27;;;;;;;38.33;24.40;;;0.40;99.90;;;;;;5120720;27;20345;-84
2021/12/04 07:37:53;;;;;;;38.35;24.48;;;0.40;99.90;;;;;;5087388;27;20031;-84
2021/12/04 07:40:21;;;;;;;44.22;26.80;;;0.40;99.90;;;;;;5123894;27;20058;-83
2021/12/04 07:42:50;;;;;;;48.97;25.80;;;0.40;99.90;;;;;;5138028;27;20126;-84
2021/12/04 07:45:16;;;;;;;38.53;24.95;;;0.40;99.90;;;;;;5157077;27;20035;-83
2021/12/04 07:47:42;;;;;;;46.58;28.33;;;0.30;99.90;;;;;;5137566;27;20047;-83
2021/12/04 07:50:09;;;;;;;55.60;30.42;;;0.40;99.90;;;;;;5100912;27;20031;-84
2021/12/04 07:52:38;;;;;;;43.42;26.88;;;0.40;99.90;;;;;;5121289;27;20031;-82
2021/12/04 07:55:07;;;;;;;45.30;27.38;;;0.30;99.90;;;;;;5138310;27;20179;-84
2021/12/04 07:57:34;;;;;;;49.17;29.45;;;0.40;99.90;;;;;;5120677;27;20092;-85
2021/12/04 08:00:01;;;;;;;45.08;28.63;;;0.40;99.90;;;;;;5104172;27;20463;-83
2021/12/04 08:02:27;;;;;;;50.25;30.33;;;0.40;99.90;;;;;;5067508;28;20063;-85
2021/12/04 08:04:53;;;;;;;48.78;30.65;;;0.40;99.90;;;;;;5114637;27;20051;-83
2021/12/04 08:07:20;;;;;;;52.30;30.67;;;0.40;99.90;;;;;;5105852;27;20084;-80
2021/12/04 08:09:46;;;;;;;49.95;29.85;;;0.40;99.90;;;;;;5122686;27;20043;-77
2021/12/04 08:12:13;;;;;;;45.90;29.58;;;0.40;99.90;;;;;;5102377;28;20035;-83
2021/12/04 08:14:39;;;;;;;54.42;33.20;;;0.40;99.90;;;;;;5117060;28;20050;-81
2021/12/04 08:17:06;;;;;;;47.03;30.73;;;0.40;99.90;;;;;;5118078;27;20044;-84
2021/12/04 08:19:32;;;;;;;48.85;29.48;;;0.50;99.90;;;;;;5111124;27;20074;-83
2021/12/04 08:21:59;;;;;;;48.58;30.25;;;0.50;99.90;;;;;;5120013;27;20108;-84
2021/12/04 08:24:26;;;;;;;44.30;28.35;;;0.50;99.90;;;;;;5103630;27;20523;-86
2021/12/04 08:26:52;;;;;;;46.38;28.13;;;0.50;99.90;;;;;;5082554;27;20043;-86
2021/12/04 08:29:18;;;;;;;49.60;30.38;;;0.50;99.90;;;;;;5097278;27;20039;-83
2021/12/04 08:31:46;;;;;;;53.25;32.60;;;0.50;99.90;;;;;;5090098;28;20393;-84
2021/12/04 08:34:14;;;;;;;51.38;30.30;;;0.50;99.90;;;;;;5114757;27;20040;-83
2021/12/04 08:36:40;;;;;;;48.03;30.45;;;0.50;99.90;;;;;;5122913;27;20046;-84
2021/12/04 08:39:07;;;;;;;48.00;29.45;;;0.60;99.90;;;;;;5095226;28;20043;-85
2021/12/04 08:41:33;;;;;;;41.42;27.40;;;0.60;99.90;;;;;;5084325;27;20044;-84
2021/12/04 08:44:00;;;;;;;46.53;27.75;;;0.60;99.90;;;;;;5111435;28;20112;-84
2021/12/04 08:46:26;;;;;;;44.88;27.48;;;0.60;99.90;;;;;;5130452;27;20487;-83
2021/12/04 08:48:56;;;;;;;49.30;28.92;;;0.60;99.90;;;;;;5108346;27;20039;-84
2021/12/04 08:51:23;;;;;;;53.97;29.90;;;0.60;99.90;;;;;;5111791;28;20475;-83
2021/12/04 08:53:52;;;;;;;55.10;30.63;;;0.60;99.90;;;;;;5116127;28;20047;-82
2021/12/04 08:56:19;;;;;;;47.10;30.17;;;0.60;99.90;;;;;;5125116;27;20042;-83
2021/12/04 08:58:45;;;;;;;47.65;29.08;;;0.60;99.90;;;;;;5117507;27;20157;-84
2021/12/04 09:01:22;;;;;;;82.00;47.65;;;0.60;99.90;;;;;;5065274;27;20479;-84
2021/12/04 09:03:49;;;;;;;59.90;35.58;;;0.60;99.90;;;;;;5078653;27;20043;-84
2021/12/04 09:06:18;;;;;;;46.83;31.13;;;0.60;99.90;;;;;;5079320;27;20047;-83
2021/12/04 09:08:45;;;;;;;55.58;32.00;;;0.60;99.90;;;;;;5115483;27;20027;-85
2021/12/04 09:11:15;;;;;;;59.60;36.75;;;0.60;99.90;;;;;;5102200;27;20412;-83
2021/12/04 09:13:42;;;;;;;53.70;32.45;;;0.60;99.90;;;;;;5120952;27;20049;-85
2021/12/04 09:16:09;;;;;;;53.08;32.20;;;0.60;99.90;;;;;;5040826;27;20026;-86
2021/12/04 09:18:36;;;;;;;57.17;33.42;;;0.60;99.90;;;;;;5140965;27;20027;-79
2021/12/04 09:21:05;;;;;;;52.05;32.70;;;0.60;99.90;;;;;;5091197;27;20047;-85
2021/12/04 09:23:35;;;;;;;;;;;0.60;99.90;;;;;;5121566;27;20138;-87
2021/12/04 09:26:24;;;;;;;46.42;29.08;;;0.60;99.90;;;;;;5107216;27;20343;-84
2021/12/04 09:28:58;;;;;;;53.05;30.70;;;0.70;99.90;;;;;;5121222;27;20108;-83
2021/12/04 09:34:35;;;;;;;41.95;26.48;;;0.70;99.90;;;;;;5118800;27;20054;-83
2021/12/04 10:33:46;;;;;;;51.35;28.60;;;1.10;99.90;;;;;;5141701;27;20047;-79
2021/12/04 10:36:24;;;;;;;45.80;27.65;;;1.10;99.90;;;;;;5145247;27;20046;-79
2021/12/04 10:39:12;;;;;;;46.88;27.38;;;1.10;99.90;;;;;;5138617;27;20045;-82
2021/12/04 10:41:45;;;;;;;67.43;39.13;;;1.20;99.90;;;;;;5131979;27;20099;-82
2021/12/04 10:44:22;;;;;;;50.45;30.33;;;1.20;99.90;;;;;;5104573;27;20050;-81
2021/12/04 10:46:52;;;;;;;49.20;28.10;;;1.20;99.90;;;;;;5143748;27;20045;-81
2021/12/04 10:49:41;;;;;;;48.35;28.58;;;1.20;99.90;;;;;;5094863;27;20019;-81
2021/12/04 10:52:36;;;;;;;49.70;30.08;;;1.20;99.90;;;;;;5120027;27;20095;-82
2021/12/04 10:55:29;;;;;;;56.45;34.42;;;1.30;99.90;;;;;;5133428;27;20142;-83
2021/12/04 11:07:13;;;;;;;55.20;32.15;;;1.30;99.90;;;;;;5107916;27;20083;-83
2021/12/04 11:40:29;;;;;;;55.17;37.42;;;1.50;99.90;;;;;;5117109;27;20038;-85
2021/12/04 11:43:12;;;;;;;70.80;39.88;;;1.50;99.90;;;;;;5118362;28;20031;-85
2021/12/04 11:46:02;;;;;;;60.67;37.28;;;1.50;99.90;;;;;;5106487;27;20046;-87
2021/12/04 11:48:47;;;;;;;57.22;36.47;;;1.60;99.90;;;;;;5131619;27;20034;-80
2021/12/04 11:51:15;;;;;;;60.88;37.65;;;1.70;99.90;;;;;;5142904;27;20091;-80
2021/12/04 11:53:42;;;;;;;60.75;37.17;;;1.70;99.90;;;;;;5148745;27;20042;-81
2021/12/04 11:56:27;;;;;;;58.67;36.03;;;1.80;99.90;;;;;;5124342;27;20432;-80
2021/12/04 11:58:57;;;;;;;59.95;34.47;;;1.80;99.90;;;;;;5137767;27;20039;-82
2021/12/04 12:01:35;;;;;;;59.28;34.78;;;1.90;99.90;;;;;;5103113;27;20496;-80
2021/12/04 12:04:11;;;;;;;59.38;35.47;;;1.90;99.90;;;;;;5139069;27;20034;-85
2021/12/04 12:06:39;;;;;;;53.58;34.85;;;1.90;99.90;;;;;;5129690;27;20156;-79
2021/12/04 12:09:19;;;;;;;66.80;38.65;;;1.90;99.90;;;;;;5123148;27;20439;-80
2021/12/04 12:12:02;;;;;;;56.13;36.08;;;1.90;99.90;;;;;;5124769;27;20398;-82
2021/12/04 12:14:38;;;;;;;58.35;35.50;;;2.00;99.90;;;;;;5129511;28;20058;-82
2021/12/04 12:17:05;;;;;;;56.53;34.92;;;2.00;99.90;;;;;;5100526;27;20036;-81
2021/12/04 12:19:38;;;;;;;59.00;35.97;;;2.00;99.90;;;;;;5102490;27;20504;-78
2021/12/04 12:37:50;;;;;;;47.63;30.75;;;1.90;99.90;;;;;;5148466;27;20033;-81
2021/12/04 12:40:19;;;;;;;72.07;39.97;;;1.80;99.90;;;;;;5132786;27;20082;-82
2021/12/04 12:42:46;;;;;;;55.47;33.13;;;1.80;99.90;;;;;;5103004;27;20030;-80
2021/12/04 12:45:27;;;;;;;66.10;37.35;;;1.80;99.90;;;;;;5117345;27;20110;-80
2021/12/04 12:48:03;;;;;;;57.72;33.63;;;1.70;99.90;;;;;;5124655;27;20049;-79
2021/12/04 12:50:37;;;;;;;69.63;36.03;;;1.70;99.90;;;;;;5133642;27;20042;-79
2021/12/04 12:53:20;;;;;;;59.30;34.10;;;1.80;99.90;;;;;;5138185;27;20065;-80
2021/12/04 12:55:49;;;;;;;67.50;35.83;;;1.70;99.90;;;;;;5144677;27;20031;-79
2021/12/04 12:58:30;;;;;;;63.90;35.90;;;1.70;99.90;;;;;;5108867;27;20040;-79
2021/12/04 13:12:15;;;;;;;70.78;38.97;;;1.70;99.90;;;;;;5133620;27;20043;-80
2021/12/04 13:14:41;;;;;;;62.92;35.53;;;1.70;99.90;;;;;;5115619;27;20043;-79
2021/12/04 13:17:09;;;;;;;58.28;36.35;;;1.60;99.90;;;;;;5134601;27;20043;-80
2021/12/04 13:19:39;;;;;;;56.38;36.47;;;1.70;99.90;;;;;;5131425;27;20039;-79
2021/12/04 13:22:12;;;;;;;61.70;37.03;;;1.70;99.90;;;;;;5122374;27;20042;-79
2021/12/04 13:24:41;;;;;;;57.53;36.05;;;1.70;99.90;;;;;;5117748;27;20031;-79
2021/12/04 13:30:08;;;;;;;53.25;36.45;;;1.80;99.90;;;;;;5115061;27;20084;-81
2021/12/04 13:32:42;;;;;;;54.70;34.90;;;1.70;99.90;;;;;;5139465;27;20096;-82
2021/12/04 13:35:14;;;;;;;85.13;49.10;;;1.80;99.90;;;;;;5110554;27;20459;-82
2021/12/04 13:37:42;;;;;;;55.38;35.97;;;1.80;99.90;;;;;;5141380;27;20436;-81
2021/12/04 13:40:12;;;;;;;59.08;36.00;;;1.80;99.90;;;;;;5118423;27;20107;-80
2021/12/04 13:42:39;;;;;;;57.55;35.47;;;1.80;99.90;;;;;;5149103;27;20084;-80
2021/12/04 13:45:11;;;;;;;54.50;35.33;;;1.80;99.90;;;;;;5110617;27;20479;-80
2021/12/04 13:47:38;;;;;;;60.63;39.83;;;1.80;99.90;;;;;;5137270;27;20408;-80
2021/12/04 13:50:20;;;;;;;68.65;39.33;;;1.80;99.90;;;;;;5132991;27;20103;-81
2021/12/04 13:52:47;;;;;;;70.57;40.50;;;1.80;99.90;;;;;;5149481;27;20414;-78
2021/12/04 13:55:16;;;;;;;69.70;39.67;;;1.80;99.90;;;;;;5120224;27;20042;-79
2021/12/04 13:57:42;;;;;;;70.53;39.47;;;1.70;99.90;;;;;;5147376;27;20065;-81
2021/12/04 14:00:12;;;;;;;69.13;38.22;;;1.70;99.90;;;;;;5114279;27;20046;-79
2021/12/04 14:02:38;;;;;;;67.03;38.08;;;1.70;99.90;;;;;;5137286;27;20082;-77
2021/12/04 14:05:11;;;;;;;72.43;39.17;;;1.70;99.90;;;;;;5118417;27;20043;-80
2021/12/04 14:07:37;;;;;;;69.88;39.22;;;1.70;99.90;;;;;;5131232;27;20043;-80
2021/12/04 14:10:19;;;;;;;59.58;34.10;;;1.60;99.90;;;;;;5114231;27;20094;-80
2021/12/04 14:12:46;;;;;;;54.50;31.25;;;1.60;99.90;;;;;;5123329;27;20497;-80
2021/12/04 14:15:16;;;;;;;45.17;27.90;;;1.60;99.90;;;;;;5126062;27;20027;-78
2021/12/04 14:17:43;;;;;;;43.05;25.88;;;1.60;99.90;;;;;;5142092;27;20037;-78
2021/12/04 14:20:13;;;;;;;45.05;25.92;;;1.60;99.90;;;;;;5100892;27;20051;-79
2021/12/04 14:22:49;;;;;;;50.30;27.63;;;1.60;99.90;;;;;;5129279;27;20109;-79
2021/12/04 14:25:17;;;;;;;51.63;26.58;;;1.50;99.90;;;;;;5116352;27;20109;-78
2021/12/04 14:27:44;;;;;;;42.30;24.17;;;1.50;99.90;;;;;;5143051;27;20049;-77
2021/12/04 14:30:13;;;;;;;38.60;23.40;;;1.50;99.90;;;;;;5141270;27;20051;-78
2021/12/04 14:32:42;;;;;;;45.72;23.52;;;1.50;99.90;;;;;;5143369;27;20118;-77
2021/12/04 14:35:15;;;;;;;37.60;22.10;;;1.50;99.90;;;;;;5140731;27;20088;-78
2021/12/04 14:37:49;;;;;;;35.22;22.27;;;1.50;99.90;;;;;;5137625;27;20035;-78
2021/12/04 14:40:27;;;;;;;41.45;26.15;;;1.50;99.90;;;;;;5135199;27;20039;-78
2021/12/04 14:42:54;;;;;;;43.28;23.80;;;1.50;99.90;;;;;;5139976;27;20076;-77
2021/12/04 14:45:27;;;;;;;39.03;22.95;;;1.50;99.90;;;;;;5129440;27;20046;-79
2021/12/04 14:48:14;;;;;;;43.03;24.70;;;1.50;99.90;;;;;;5129081;27;20038;-81
2021/12/04 14:50:44;;;;;;;38.93;23.30;;;1.50;99.90;;;;;;5111256;27;20039;-78
2021/12/04 14:53:18;;;;;;;38.13;24.27;;;1.50;99.90;;;;;;5130935;27;20119;-79
2021/12/04 14:55:47;;;;;;;38.72;24.08;;;1.50;99.90;;;;;;5106902;27;20344;-79
2021/12/04 14:58:17;;;;;;;41.20;24.13;;;1.50;99.90;;;;;;5139533;27;20046;-82
2021/12/04 15:00:59;;;;;;;123.75;74.13;;;1.50;99.90;;;;;;5134359;27;20530;-77
2021/12/04 15:03:37;;;;;;;46.53;25.38;;;1.50;99.90;;;;;;5141612;27;20130;-74
2021/12/04 15:06:06;;;;;;;38.47;23.50;;;1.50;99.90;;;;;;5149658;27;20043;-75
2021/12/04 15:08:53;;;;;;;39.60;22.52;;;1.40;99.90;;;;;;5134735;27;20137;-79
2021/12/04 15:11:25;;;;;;;35.58;22.48;;;1.50;99.90;;;;;;5120934;27;20054;-79
2021/12/04 15:14:03;;;;;;;38.40;22.10;;;1.50;99.90;;;;;;5121745;27;20479;-79
2021/12/04 15:16:36;;;;;;;37.33;21.63;;;1.50;99.90;;;;;;5140193;27;20064;-79
2021/12/04 15:19:11;;;;;;;37.47;21.67;;;1.50;99.90;;;;;;5136857;27;20402;-80
2021/12/04 15:21:43;;;;;;;37.35;21.23;;;1.50;99.90;;;;;;5126719;27;20050;-79
2021/12/04 15:24:14;;;;;;;39.33;22.83;;;1.40;99.90;;;;;;5130113;27;20061;-77
2021/12/04 15:26:42;;;;;;;39.17;23.55;;;1.40;99.90;;;;;;5116918;28;20120;-79
2021/12/04 15:29:19;;;;;;;37.30;22.90;;;1.40;99.90;;;;;;5108655;27;20045;-79
2021/12/04 15:31:46;;;;;;;49.17;27.02;;;1.30;99.90;;;;;;5146262;27;20091;-81
2021/12/04 15:34:13;;;;;;;40.65;24.30;;;1.30;99.90;;;;;;5120027;28;20084;-80
2021/12/04 15:36:45;;;;;;;42.17;25.05;;;1.30;99.90;;;;;;5110208;28;20065;-80
2021/12/04 15:39:27;;;;;;;129.30;73.43;;;1.30;99.90;;;;;;5144273;27;20043;-81
2021/12/04 15:44:52;;;;;;;46.08;27.65;;;1.30;99.90;;;;;;5119358;28;20043;-82
2021/12/04 15:47:48;;;;;;;49.47;28.23;;;1.20;99.90;;;;;;5096391;27;20448;-79
2021/12/04 15:53:15;;;;;;;53.53;29.98;;;1.10;99.90;;;;;;5071837;27;20046;-79
2021/12/04 15:55:53;;;;;;;48.15;29.92;;;1.10;99.90;;;;;;5092812;27;20035;-78
2021/12/04 15:58:29;;;;;;;49.17;30.73;;;1.00;99.90;;;;;;5117122;27;20138;-75
2021/12/04 16:01:05;;;;;;;51.70;29.73;;;1.00;99.90;;;;;;5117932;27;20055;-78
2021/12/04 16:03:38;;;;;;;49.80;28.63;;;1.00;99.90;;;;;;5143161;27;20042;-76
2021/12/04 16:06:10;;;;;;;48.58;29.10;;;0.90;99.90;;;;;;5116434;27;20039;-78
2021/12/04 16:08:39;;;;;;;49.05;29.58;;;0.90;99.90;;;;;;5095245;27;20061;-81
2021/12/04 16:11:08;;;;;;;52.50;30.25;;;0.90;99.90;;;;;;5109307;27;20043;-79
2021/12/04 16:13:36;;;;;;;49.78;28.92;;;0.90;99.90;;;;;;5116461;27;20414;-78
2021/12/04 16:16:29;;;;;;;50.72;30.05;;;0.90;99.90;;;;;;5105931;27;20042;-80